createdAt,value
2022-12-13T00:01:24.468Z,17.83
2022-12-13T00:03:56.038Z,16.83
2022-12-13T00:06:22.584Z,16.37
2022-12-13T00:08:49.326Z,17.00
2022-12-13T00:11:16.469Z,16.80
2022-12-13T00:13:43.807Z,17.53
2022-12-13T00:16:13.502Z,16.83
2022-12-13T00:18:40.390Z,16.20
2022-12-13T00:21:08.347Z,17.27
2022-12-13T00:23:35.855Z,17.17
2022-12-13T00:26:07.985Z,17.47
2022-12-13T00:28:34.429Z,15.80
2022-12-13T00:31:20.051Z,15.90
2022-12-13T00:33:49.238Z,17.20
2022-12-13T00:36:16.934Z,16.07
2022-12-13T00:38:43.467Z,16.53
2022-12-13T00:41:14.847Z,17.07
2022-12-13T00:43:41.395Z,16.37
2022-12-13T00:46:14.671Z,17.30
2022-12-13T00:48:42.099Z,15.73
2022-12-13T00:51:10.051Z,15.80
2022-12-13T00:53:36.998Z,15.57
2022-12-13T00:56:04.524Z,17.63
2022-12-13T00:58:30.963Z,16.40
2022-12-13T01:01:09.765Z,17.40
2022-12-13T01:03:36.803Z,17.03
2022-12-13T01:06:17.569Z,16.73
2022-12-13T01:08:44.964Z,17.93
2022-12-13T01:11:12.050Z,18.37
2022-12-13T01:13:38.997Z,17.43
2022-12-13T01:16:08.436Z,17.30
2022-12-13T01:18:35.587Z,18.87
2022-12-13T01:21:05.106Z,19.30
2022-12-13T01:23:32.265Z,18.90
2022-12-13T01:25:58.774Z,16.87
2022-12-13T01:28:25.668Z,14.73
2022-12-13T01:31:01.332Z,16.03
2022-12-13T01:33:28.519Z,16.50
2022-12-13T01:35:55.066Z,15.07
2022-12-13T01:38:26.248Z,15.10
2022-12-13T01:40:59.337Z,16.00
2022-12-13T01:43:46.994Z,16.20
2022-12-13T01:46:15.112Z,15.97
2022-12-13T01:48:59.324Z,15.93
2022-12-13T01:51:32.017Z,16.27
2022-12-13T01:54:03.195Z,16.37
2022-12-13T01:56:36.877Z,17.37
2022-12-13T01:59:06.836Z,17.60
2022-12-13T02:01:33.991Z,18.27
2022-12-13T02:04:00.513Z,18.87
2022-12-13T02:06:33.957Z,16.30
2022-12-13T02:09:01.618Z,16.67
2022-12-13T02:11:28.875Z,16.93
2022-12-13T02:13:55.370Z,16.70
2022-12-13T02:16:22.946Z,16.70
2022-12-13T02:19:27.354Z,18.47
2022-12-13T02:22:32.871Z,19.27
2022-12-13T02:25:15.049Z,20.13
2022-12-13T02:28:30.314Z,20.07
2022-12-13T02:31:10.963Z,17.10
2022-12-13T02:34:10.424Z,16.60
2022-12-13T02:37:18.122Z,18.00
2022-12-13T02:39:54.133Z,15.90
2022-12-13T02:42:29.540Z,16.97
2022-12-13T02:45:20.244Z,16.37
2022-12-13T02:47:49.715Z,15.70
2022-12-13T02:50:16.953Z,17.23
2022-12-13T02:52:46.503Z,15.90
2022-12-13T02:55:15.962Z,16.93
2022-12-13T02:57:45.422Z,16.90
2022-12-13T03:00:49.454Z,17.60
2022-12-13T03:03:34.685Z,18.00
2022-12-13T03:06:33.929Z,18.47
2022-12-13T03:09:32.997Z,18.00
2022-12-13T03:12:39.381Z,17.60
2022-12-13T03:15:11.753Z,17.13
2022-12-13T03:17:45.570Z,19.53
2022-12-13T03:20:23.308Z,18.90
2022-12-13T03:22:51.544Z,19.10
2022-12-13T03:25:30.577Z,18.20
2022-12-13T03:27:58.131Z,18.60
2022-12-13T03:30:28.285Z,17.13
2022-12-13T03:32:54.724Z,18.60
2022-12-13T03:35:22.270Z,18.00
2022-12-13T03:37:49.576Z,16.97
2022-12-13T03:40:17.012Z,17.70
2022-12-13T03:42:43.485Z,16.90
2022-12-13T03:45:10.225Z,16.50
2022-12-13T03:47:36.658Z,18.00
2022-12-13T03:50:25.292Z,16.50
2022-12-13T03:52:51.849Z,17.33
2022-12-13T03:55:19.229Z,18.23
2022-12-13T03:57:45.736Z,16.30
2022-12-13T04:00:12.901Z,17.50
2022-12-13T04:02:39.654Z,18.00
2022-12-13T04:05:06.584Z,18.87
2022-12-13T04:07:34.316Z,18.97
2022-12-13T04:10:01.504Z,18.93
2022-12-13T04:12:48.558Z,18.30
2022-12-13T04:15:15.645Z,17.10
2022-12-13T04:17:42.520Z,16.83
2022-12-13T04:20:09.545Z,17.80
2022-12-13T04:22:36.091Z,18.43
2022-12-13T04:25:03.840Z,17.30
2022-12-13T04:27:30.709Z,17.33
2022-12-13T04:29:57.258Z,17.90
2022-12-13T04:32:26.051Z,17.80
2022-12-13T04:34:53.549Z,16.30
2022-12-13T04:37:27.892Z,16.80
2022-12-13T04:39:54.329Z,17.77
2022-12-13T04:42:27.532Z,16.83
2022-12-13T04:44:54.334Z,17.23
2022-12-13T04:47:20.857Z,16.87
2022-12-13T04:49:47.956Z,18.97
2022-12-13T04:52:22.553Z,17.70
2022-12-13T04:54:55.755Z,16.53
2022-12-13T04:57:22.814Z,16.57
2022-12-13T04:59:49.315Z,16.70
2022-12-13T05:02:23.313Z,18.43
2022-12-13T05:04:54.103Z,18.00
2022-12-13T05:07:21.149Z,20.30
2022-12-13T05:09:47.781Z,18.23
2022-12-13T05:12:23.046Z,17.23
2022-12-13T05:14:51.439Z,17.83
2022-12-13T05:17:18.033Z,18.10
2022-12-13T05:19:44.715Z,16.87
2022-12-13T05:22:19.703Z,19.53
2022-12-13T05:24:47.212Z,19.70
2022-12-13T05:27:24.994Z,19.87
2022-12-13T05:30:02.806Z,18.60
2022-12-13T05:32:44.069Z,18.27
2022-12-13T05:35:22.838Z,18.93
2022-12-13T05:37:54.998Z,18.50
2022-12-13T05:40:23.265Z,19.43
2022-12-13T05:42:49.799Z,20.63
2022-12-13T05:45:18.723Z,19.47
2022-12-13T05:47:45.817Z,20.87
2022-12-13T05:50:13.497Z,19.77
2022-12-13T05:52:40.157Z,21.20
2022-12-13T05:55:06.912Z,20.80
2022-12-13T05:57:34.172Z,21.13
2022-12-13T06:00:00.822Z,21.23
2022-12-13T06:02:27.650Z,21.20
2022-12-13T06:04:54.233Z,24.60
2022-12-13T06:07:20.959Z,22.20
2022-12-13T06:09:47.521Z,24.47
2022-12-13T06:12:31.031Z,22.40
2022-12-13T06:15:00.842Z,32.93
2022-12-13T06:17:36.220Z,29.60
2022-12-13T06:20:23.824Z,25.03
2022-12-13T06:22:52.161Z,23.60
2022-12-13T06:25:30.566Z,24.20
2022-12-13T06:28:00.943Z,22.87
2022-12-13T06:30:28.518Z,22.73
2022-12-13T06:32:55.153Z,24.73
2022-12-13T06:35:29.518Z,20.50
2022-12-13T06:38:00.875Z,22.37
2022-12-13T06:40:30.154Z,22.60
2022-12-13T06:42:56.714Z,19.37
2022-12-13T06:45:23.225Z,21.03
2022-12-13T06:47:49.678Z,21.73
2022-12-13T06:50:16.344Z,22.50
2022-12-13T06:52:42.782Z,22.03
2022-12-13T06:55:09.738Z,21.97
2022-12-13T06:57:36.203Z,21.40
2022-12-13T07:00:04.977Z,21.60
2022-12-13T07:02:32.605Z,21.50
2022-12-13T07:04:59.162Z,22.73
2022-12-13T07:07:26.277Z,22.70
2022-12-13T07:09:53.595Z,21.70
2022-12-13T07:12:21.098Z,21.83
2022-12-13T07:14:48.496Z,21.90
2022-12-13T07:17:32.565Z,24.30
2022-12-13T07:20:01.508Z,29.07
2022-12-13T07:22:28.384Z,22.67
2022-12-13T07:24:54.856Z,22.00
2022-12-13T07:27:21.263Z,22.00
2022-12-13T07:29:47.721Z,22.77
2022-12-13T07:32:14.428Z,21.87
2022-12-13T07:34:40.925Z,24.60
2022-12-13T07:37:30.323Z,23.20
2022-12-13T07:40:02.553Z,22.17
2022-12-13T07:42:29.794Z,22.70
2022-12-13T07:44:56.272Z,22.23
2022-12-13T07:47:23.385Z,22.60
2022-12-13T07:49:49.890Z,23.00
2022-12-13T07:52:16.355Z,23.87
2022-12-13T07:54:42.835Z,22.37
2022-12-13T07:57:09.295Z,22.33
2022-12-13T07:59:35.740Z,23.07
2022-12-13T08:02:02.294Z,21.07
2022-12-13T08:04:29.558Z,21.57
2022-12-13T08:07:09.482Z,23.40
2022-12-13T08:09:36.844Z,23.30
2022-12-13T08:12:05.244Z,25.40
2022-12-13T08:14:31.781Z,23.03
2022-12-13T08:16:58.289Z,21.13
2022-12-13T08:19:24.832Z,21.30
2022-12-13T08:21:55.019Z,22.63
2022-12-13T08:24:27.513Z,23.60
2022-12-13T08:27:00.959Z,23.00
2022-12-13T08:29:33.149Z,20.60
2022-12-13T08:32:13.055Z,23.33
2022-12-13T08:34:41.278Z,22.57
2022-12-13T08:37:08.216Z,22.40
2022-12-13T08:39:37.425Z,23.00
2022-12-13T08:42:16.122Z,22.97
2022-12-13T08:44:49.880Z,22.43
2022-12-13T08:47:24.748Z,22.80
2022-12-13T08:49:53.518Z,22.10
2022-12-13T08:52:22.310Z,22.67
2022-12-13T08:54:48.815Z,23.43
2022-12-13T08:57:15.708Z,21.80
2022-12-13T08:59:42.195Z,23.07
2022-12-13T09:02:15.360Z,21.70
2022-12-13T09:04:42.727Z,21.83
2022-12-13T09:07:09.546Z,20.30
2022-12-13T09:09:36.955Z,22.37
2022-12-13T09:12:10.695Z,20.07
2022-12-13T09:14:37.996Z,18.43
2022-12-13T09:17:14.717Z,20.40
2022-12-13T09:19:51.030Z,20.53
2022-12-13T09:22:33.595Z,21.00
2022-12-13T09:25:04.411Z,23.17
2022-12-13T09:27:39.512Z,20.30
2022-12-13T09:30:08.605Z,21.50
2022-12-13T09:32:35.227Z,22.17
2022-12-13T09:35:01.918Z,20.63
2022-12-13T09:37:30.085Z,20.80
2022-12-13T09:39:56.582Z,21.13
2022-12-13T09:42:30.827Z,18.00
2022-12-13T09:45:22.257Z,18.80
2022-12-13T09:47:52.458Z,19.40
2022-12-13T09:50:37.767Z,20.30
2022-12-13T09:53:11.937Z,18.90
2022-12-13T09:55:50.069Z,19.20
2022-12-13T09:58:31.732Z,18.10
2022-12-13T10:00:59.301Z,17.80
2022-12-13T10:03:26.588Z,18.97
2022-12-13T10:06:15.217Z,17.83
2022-12-13T10:08:57.859Z,17.00
2022-12-13T10:11:31.639Z,17.10
2022-12-13T10:14:12.464Z,18.10
2022-12-13T10:16:48.943Z,16.30
2022-12-13T10:19:35.453Z,18.10
2022-12-13T10:22:04.705Z,18.00
2022-12-13T10:24:48.275Z,16.73
2022-12-13T10:27:28.069Z,16.40
2022-12-13T10:30:06.619Z,17.27
2022-12-13T10:32:42.644Z,16.30
2022-12-13T10:35:21.998Z,17.23
2022-12-13T10:37:48.591Z,16.33
2022-12-13T10:40:41.000Z,15.50
2022-12-13T10:43:07.545Z,16.03
2022-12-13T10:45:34.250Z,16.90
2022-12-13T10:48:04.187Z,17.40
2022-12-13T10:50:31.955Z,17.23
2022-12-13T10:53:00.613Z,16.87
2022-12-13T10:55:38.061Z,16.80
2022-12-13T10:58:07.392Z,15.70
2022-12-13T11:00:33.937Z,15.27
2022-12-13T11:03:00.413Z,15.67
2022-12-13T11:05:35.260Z,14.60
2022-12-13T11:08:23.392Z,15.87
2022-12-13T11:10:59.211Z,15.77
2022-12-13T11:13:36.730Z,15.47
2022-12-13T11:16:13.473Z,19.90
2022-12-13T11:18:40.531Z,16.83
2022-12-13T11:21:07.846Z,16.63
2022-12-13T11:23:34.316Z,16.23
2022-12-13T11:26:07.239Z,16.00
2022-12-13T11:28:56.183Z,16.53
2022-12-13T11:31:40.049Z,15.90
2022-12-13T11:34:26.199Z,15.67
2022-12-13T11:37:06.152Z,15.03
2022-12-13T11:39:37.875Z,14.80
2022-12-13T11:42:22.358Z,15.50
2022-12-13T11:45:36.545Z,13.47
2022-12-13T11:48:20.919Z,13.37
2022-12-13T11:50:50.837Z,13.20
2022-12-13T11:53:35.761Z,13.60
2022-12-13T11:56:13.526Z,12.87
2022-12-13T12:01:40.444Z,13.47
2022-12-13T12:04:12.849Z,13.27
2022-12-13T12:06:47.420Z,12.50
2022-12-13T12:09:20.788Z,11.83
2022-12-13T12:12:12.844Z,12.83
2022-12-13T12:14:46.609Z,13.27
2022-12-13T12:17:16.161Z,12.00
2022-12-13T12:19:46.748Z,12.97
2022-12-13T12:22:24.601Z,13.50
2022-12-13T12:25:03.993Z,11.90
2022-12-13T12:27:35.308Z,14.37
2022-12-13T12:30:08.554Z,12.90
2022-12-13T12:32:57.938Z,13.47
2022-12-13T12:35:55.508Z,13.93
2022-12-13T12:38:41.249Z,12.60
2022-12-13T12:41:45.512Z,11.97
2022-12-13T12:44:31.365Z,13.30
2022-12-13T12:51:05.870Z,13.63
2022-12-13T12:53:50.571Z,12.53
2022-12-13T12:56:23.188Z,10.57
2022-12-13T12:59:09.805Z,11.33
2022-12-13T13:01:45.441Z,12.17
2022-12-13T13:04:22.482Z,12.33
2022-12-13T13:07:25.639Z,11.43
2022-12-13T13:09:54.991Z,11.43
2022-12-13T13:12:29.307Z,11.77
2022-12-13T13:14:57.875Z,11.00
2022-12-13T13:17:24.372Z,11.27
2022-12-13T13:20:15.242Z,12.27
2022-12-13T13:22:44.215Z,10.50
2022-12-13T13:25:40.137Z,10.97
2022-12-13T13:28:22.216Z,9.97
2022-12-13T13:31:08.986Z,10.50
2022-12-13T13:33:41.430Z,9.13
2022-12-13T13:36:08.992Z,11.47
2022-12-13T13:39:01.654Z,10.77
2022-12-13T13:41:55.036Z,10.40
2022-12-13T13:44:46.496Z,9.43
2022-12-13T13:47:18.915Z,11.30
2022-12-13T13:50:13.144Z,11.00
2022-12-13T13:53:20.221Z,11.10
2022-12-13T13:56:11.194Z,10.80
2022-12-13T13:58:52.819Z,9.97
2022-12-13T14:01:32.393Z,10.67
2022-12-13T14:04:26.035Z,11.03
2022-12-13T14:07:14.278Z,11.47
2022-12-13T14:09:57.973Z,10.97
2022-12-13T14:12:27.348Z,11.33
2022-12-13T14:15:15.970Z,11.13
2022-12-13T14:17:48.442Z,10.60
2022-12-13T14:20:17.829Z,11.53
2022-12-13T14:23:04.714Z,13.40
2022-12-13T14:25:42.257Z,10.63
2022-12-13T14:28:19.855Z,11.50
2022-12-13T14:30:47.799Z,11.33
2022-12-13T14:33:25.225Z,12.27
2022-12-13T14:35:59.865Z,11.10
2022-12-13T14:38:29.105Z,11.70
2022-12-13T14:41:01.592Z,11.43
2022-12-13T14:43:33.785Z,11.17
2022-12-13T14:46:05.729Z,11.87
2022-12-13T14:48:55.928Z,11.50
2022-12-13T14:51:31.042Z,11.37
2022-12-13T14:53:58.644Z,11.50
2022-12-13T14:56:28.876Z,12.80
2022-12-13T14:58:58.270Z,12.73
2022-12-13T15:01:35.617Z,15.07
2022-12-13T15:04:21.130Z,13.27
2022-12-13T15:06:55.156Z,11.50
2022-12-13T15:09:22.590Z,11.47
2022-12-13T15:11:49.156Z,10.90
2022-12-13T15:14:18.604Z,12.17
2022-12-13T15:16:55.843Z,11.80
2022-12-13T15:19:30.183Z,10.97
2022-12-13T15:22:07.219Z,12.63
2022-12-13T15:24:40.914Z,12.17
2022-12-13T15:27:08.452Z,12.10
2022-12-13T15:29:36.749Z,11.70
2022-12-13T15:32:04.045Z,11.93
2022-12-13T15:34:31.093Z,12.27
2022-12-13T15:37:29.021Z,11.57
2022-12-13T15:40:00.911Z,12.20
2022-12-13T15:42:33.990Z,11.90
2022-12-13T15:45:03.616Z,11.60
2022-12-13T15:47:30.200Z,12.17
2022-12-13T15:50:01.605Z,11.73
2022-12-13T15:52:30.562Z,12.80
2022-12-13T15:55:08.241Z,11.90
2022-12-13T15:57:55.554Z,12.63
2022-12-13T16:00:29.587Z,11.67
2022-12-13T16:03:09.340Z,11.20
2022-12-13T16:05:40.553Z,12.60
2022-12-13T16:08:18.048Z,16.13
2022-12-13T16:10:49.810Z,18.47
2022-12-13T16:13:39.966Z,20.87
2022-12-13T16:16:35.140Z,16.30
2022-12-13T16:19:01.610Z,16.57
2022-12-13T16:21:28.950Z,14.63
2022-12-13T16:23:55.665Z,12.00
2022-12-13T16:26:29.384Z,12.37
2022-12-13T16:29:00.585Z,12.27
2022-12-13T16:31:35.304Z,13.53
2022-12-13T16:34:03.201Z,14.37
2022-12-13T16:36:30.206Z,16.87
2022-12-13T16:38:56.741Z,16.27
2022-12-13T16:41:23.837Z,18.20
2022-12-13T16:43:56.547Z,17.80
2022-12-13T16:47:18.023Z,17.73
2022-12-13T16:49:22.010Z,16.40
2022-12-13T16:51:49.398Z,15.80
2022-12-13T16:54:17.438Z,13.33
2022-12-13T16:56:43.933Z,13.40
2022-12-13T16:59:19.245Z,14.30
2022-12-13T17:01:46.413Z,12.60
2022-12-13T17:04:19.615Z,11.90
2022-12-13T17:06:47.497Z,12.97
2022-12-13T17:09:13.912Z,12.50
2022-12-13T17:11:40.375Z,12.90
2022-12-13T17:14:07.118Z,11.17
2022-12-13T17:16:33.622Z,12.30
2022-12-13T17:19:00.082Z,11.63
2022-12-13T17:21:28.472Z,10.60
2022-12-13T17:23:56.336Z,10.43
2022-12-13T17:26:23.323Z,11.53
2022-12-13T17:28:50.641Z,10.77
2022-12-13T17:31:17.811Z,9.90
2022-12-13T17:33:44.813Z,9.60
2022-12-13T17:36:13.616Z,10.60
2022-12-13T17:38:47.438Z,9.70
2022-12-13T17:41:15.694Z,11.00
2022-12-13T17:43:43.222Z,10.37
2022-12-13T17:46:14.167Z,10.33
2022-12-13T17:48:42.024Z,9.60
2022-12-13T17:51:10.484Z,8.90
2022-12-13T17:53:39.311Z,9.30
2022-12-13T17:56:08.240Z,9.33
2022-12-13T17:58:35.425Z,10.23
2022-12-13T18:01:16.606Z,11.47
2022-12-13T18:03:43.647Z,9.47
2022-12-13T18:06:10.874Z,10.67
2022-12-13T18:08:38.940Z,10.80
2022-12-13T18:13:55.033Z,10.93
2022-12-13T18:16:25.890Z,10.13
2022-12-13T18:18:55.869Z,11.47
2022-12-13T18:21:23.992Z,12.60
2022-12-13T18:23:55.428Z,13.17
2022-12-13T18:26:23.770Z,13.20
2022-12-13T18:28:50.229Z,11.47
2022-12-13T18:31:20.104Z,10.43
2022-12-13T18:33:47.855Z,10.17
2022-12-13T18:36:14.848Z,11.23
2022-12-13T18:38:42.287Z,10.07
2022-12-13T18:41:14.738Z,11.00
2022-12-13T18:43:42.787Z,13.47
2022-12-13T18:46:10.161Z,12.83
2022-12-13T18:48:36.944Z,11.53
2022-12-13T18:51:07.885Z,10.50
2022-12-13T18:53:35.539Z,10.50
2022-12-13T18:56:18.397Z,10.43
2022-12-13T18:58:46.723Z,11.90
2022-12-13T19:01:15.532Z,9.97
2022-12-13T19:03:44.556Z,10.37
2022-12-13T19:06:15.702Z,10.73
2022-12-13T19:08:42.306Z,10.80
2022-12-13T19:11:08.801Z,11.07
2022-12-13T19:13:35.277Z,10.07
2022-12-13T19:16:08.334Z,9.40
2022-12-13T19:18:36.055Z,8.80
2022-12-13T19:21:02.837Z,9.37
2022-12-13T19:23:29.837Z,10.37
2022-12-13T19:25:56.623Z,9.80
2022-12-13T19:28:23.115Z,9.00
2022-12-13T19:30:49.563Z,9.53
2022-12-13T19:33:17.307Z,9.07
2022-12-13T19:35:46.477Z,9.30
2022-12-13T19:38:13.878Z,10.03
2022-12-13T19:40:42.296Z,8.90
2022-12-13T19:43:09.249Z,9.10
2022-12-13T19:45:35.730Z,8.67
2022-12-13T19:48:02.381Z,8.40
2022-12-13T19:50:29.515Z,8.60
2022-12-13T19:52:56.055Z,8.40
2022-12-13T19:55:22.521Z,9.00
2022-12-13T19:57:49.038Z,6.40
2022-12-13T20:00:15.970Z,8.77
2022-12-13T20:02:42.507Z,8.60
2022-12-13T20:05:09.365Z,7.57
2022-12-13T20:07:36.024Z,9.00
2022-12-13T20:10:02.976Z,9.00
2022-12-13T20:12:29.482Z,12.83
2022-12-13T20:14:56.172Z,11.97
2022-12-13T20:17:22.604Z,10.80
2022-12-13T20:19:49.045Z,9.07
2022-12-13T20:22:15.630Z,7.83
2022-12-13T20:24:42.062Z,8.97
2022-12-13T20:27:08.554Z,9.07
2022-12-13T20:29:35.034Z,7.93
2022-12-13T20:32:01.553Z,8.73
2022-12-13T20:34:28.194Z,8.97
2022-12-13T20:36:54.639Z,7.87
2022-12-13T20:39:21.162Z,8.80
2022-12-13T20:41:47.747Z,7.77
2022-12-13T20:44:14.574Z,8.03
2022-12-13T20:46:41.258Z,8.30
2022-12-13T20:49:09.260Z,8.03
2022-12-13T20:51:37.976Z,8.20
2022-12-13T20:54:04.862Z,8.90
2022-12-13T20:56:35.001Z,9.57
2022-12-13T20:59:02.876Z,8.60
2022-12-13T21:01:33.283Z,8.93
2022-12-13T21:04:01.678Z,10.30
2022-12-13T21:06:29.617Z,10.77
2022-12-13T21:09:02.262Z,10.80
2022-12-13T21:11:31.655Z,9.97
2022-12-13T21:14:17.014Z,10.00
2022-12-13T21:16:51.395Z,11.20
2022-12-13T21:19:26.444Z,10.57
2022-12-13T21:21:53.992Z,9.50
2022-12-13T21:24:22.406Z,8.87
2022-12-13T21:26:49.256Z,8.67
2022-12-13T21:29:18.489Z,10.00
2022-12-13T21:31:49.186Z,9.70
2022-12-13T21:34:17.093Z,8.40
2022-12-13T21:36:45.742Z,8.30
2022-12-13T21:39:15.198Z,7.63
2022-12-13T21:41:42.740Z,7.00
2022-12-13T21:44:14.529Z,7.50
2022-12-13T21:47:10.830Z,6.80
2022-12-13T21:49:28.223Z,6.83
2022-12-13T21:51:55.142Z,6.90
2022-12-13T21:54:22.735Z,6.30
2022-12-13T21:57:07.825Z,7.30
2022-12-13T21:59:34.365Z,6.67
2022-12-13T22:02:13.631Z,6.80
2022-12-13T22:04:41.548Z,5.50
2022-12-13T22:07:10.577Z,17.40
2022-12-13T22:09:37.613Z,14.20
2022-12-13T22:12:19.030Z,13.10
2022-12-13T22:14:46.262Z,7.10
2022-12-13T22:17:12.915Z,5.23
2022-12-13T22:19:39.760Z,5.43
2022-12-13T22:22:06.923Z,5.70
2022-12-13T22:24:33.802Z,5.93
2022-12-13T22:27:00.608Z,5.97
2022-12-13T22:29:27.351Z,6.50
2022-12-13T22:31:53.898Z,5.60
2022-12-13T22:34:20.384Z,5.30
2022-12-13T22:36:46.857Z,5.27
2022-12-13T22:39:19.059Z,4.70
2022-12-13T22:41:46.488Z,6.37
2022-12-13T22:44:13.829Z,5.97
2022-12-13T22:46:40.985Z,5.80
2022-12-13T22:49:08.345Z,5.57
2022-12-13T22:51:35.474Z,5.30
2022-12-13T22:54:02.230Z,5.40
2022-12-13T22:56:28.774Z,5.20
2022-12-13T22:58:57.278Z,5.27
2022-12-13T23:01:26.724Z,5.60
2022-12-13T23:03:53.620Z,5.80
2022-12-13T23:06:23.397Z,5.40
2022-12-13T23:08:52.530Z,5.93
2022-12-13T23:11:37.788Z,5.53
2022-12-13T23:14:07.790Z,6.10
2022-12-13T23:16:35.122Z,6.70
2022-12-13T23:19:39.121Z,8.40
2022-12-13T23:21:49.687Z,6.03
2022-12-13T23:24:16.391Z,4.63
2022-12-13T23:26:42.957Z,5.37
2022-12-13T23:29:09.742Z,5.80
2022-12-13T23:31:39.601Z,5.00
2022-12-13T23:34:06.669Z,5.30
2022-12-13T23:36:34.083Z,5.50
2022-12-13T23:39:02.148Z,5.17
2022-12-13T23:41:33.665Z,5.50
2022-12-13T23:44:01.060Z,4.87
2022-12-13T23:46:30.407Z,5.37
2022-12-13T23:48:58.415Z,4.93
2022-12-13T23:51:25.869Z,5.20
2022-12-13T23:53:53.199Z,5.10
2022-12-13T23:56:20.843Z,5.03
2022-12-13T23:58:48.074Z,4.80
